Click here to close
New Message Alert
Helo Crash NYC Building


Helo Crash NYC Building  

  Click Here to have an E-mail Sent to you when a new message is added to this thread
Author: Anonymous   Date: 6/10/2019 2:33:48 PM  +1/-0   Show Orig. Msg (this window) Or  In New Window

Data at: 1830 UTC 10 Jun 2019


KEWR 101820Z 03006KT 1 3/4SM R04R/4500VP6000FT -RA BR OVC004 19/18 A3000 RMK AO2 CIG 003V006 P0011 T01890183 $




KTEB 101806Z 06007KT 2 1/2SM R06/6000VP6000FT -RA BR OVC005 19/17 A3001 RMK AO2 P0004 T01890172




KJFK 101827Z 10016G24KT 1SM R04R/2400V5000FT +RA BR OVC005 19/19 A3001 RMK AO2 SFC VIS 2 1/2 P0007 T01940194




KLGA 101811Z 04011KT 1/2SM R04/2800VP6000FT RA FG OVC005 17/16 A3002 RMK AO2 P0004 T01720161




KNYC 101828Z AUTO 06008KT 1SM +RA BR VV004 18/17 A3004 RMK AO2 P0020 T01780172 $ 

 
Reply    Return-To-Index     Display Full Msg Thread   Rules of Engagement   Terms of Use

Helo Crash NYC Building +1/-0 Forzaman 6/10/2019 2:14:59 PM